Latest Weather Observations for West Roebuck

IDW60801

Issued at 12:02 pm WST Saturday 25 April 2015 (issued every 30 minutes, with the page automatically refreshed every 10 minutes)

About weather observations | Map of weather stations | Latest weather observations for WA | Other Formats
Station Details ID: 003096 Name: WEST ROEBUCK Lat: -17.90 Lon: 122.31 Height: 32.0 m
Data from the previous 72 hours. | See also: Recent months for locations in Western Australia
Date/Time
WST
Temp
°C
App
Temp
°C
Dew
Point
Rel
Hum
%
Delta-T
°C
Wind Press
QNH
hPa
Press
MSL
hPa
Rain
since 9 am
mm
Dir
 
Spd
km/h
Gust
km/h
Spd
kts
Gust
kts
25/12:00pm 29.7 - - - - E 19 32 10 17 - - 0.0
25/11:30am 29.8 - - - - E 17 24 9 13 - - 0.0
25/11:00am 29.4 - - - - E 17 26 9 14 - - 0.0
25/10:30am 28.5 - - - - E 22 37 12 20 - - 0.0
25/10:00am 28.4 - - - - E 20 32 11 17 - - 0.0
25/09:30am 27.9 - - - - E 20 32 11 17 - - 0.0
25/09:00am 27.8 - - - - E 19 28 10 15 - - 0.6
25/08:30am 27.0 - - - - E 17 26 9 14 - - 0.6
25/08:00am 25.8 - - - - E 13 20 7 11 - - 0.6
25/07:30am 24.8 - - - - ESE 13 20 7 11 - - 0.6
25/07:00am 24.2 - - - - E 13 20 7 11 - - 0.6
25/06:30am 23.0 - - - - ESE 9 13 5 7 - - 0.6
25/06:00am 23.2 - - - - SE 13 17 7 9 - - 0.6
25/05:30am 23.5 - - - - SE 9 13 5 7 - - 0.6
25/05:00am 23.4 - - - - ESE 9 13 5 7 - - 0.6
25/04:30am 23.6 - - - - SE 11 15 6 8 - - 0.6
25/04:00am 23.9 - - - - ESE 9 13 5 7 - - 0.6
25/03:30am 23.6 - - - - SSE 9 11 5 6 - - 0.6
25/03:00am 23.5 - - - - SE 9 11 5 6 - - 0.6
25/02:30am 23.5 - - - - S 2 6 1 3 - - 0.6
25/02:00am 24.2 - - - - SE 9 15 5 8 - - 0.6
25/01:30am 23.9 - - - - SSE 15 20 8 11 - - 0.6
25/01:00am 22.7 - - - - SSE 11 13 6 7 - - 0.6
25/12:30am 23.2 - - - - SE 4 9 2 5 - - 0.2
25/12:00am 25.3 - - - - ENE 4 11 2 6 - - 0.0
 
Date/Time
WST
Temp
°C
App
Temp
°C
Dew
Point
Rel
Hum
%
Delta-T
°C
Wind Press
QNH
hPa
Press
MSL
hPa
Rain
since 9 am
mm
Dir
 
Spd
km/h
Gust
km/h
Spd
kts
Gust
kts
24/11:30pm 24.9 - - - - E 6 9 3 5 - - 0.0
24/11:00pm 25.4 - - - - SE 7 11 4 6 - - 0.0
24/10:30pm 25.6 - - - - ESE 7 13 4 7 - - 0.0
24/10:00pm 25.3 - - - - ESE 11 15 6 8 - - 0.0
24/09:30pm 24.8 - - - - ESE 9 13 5 7 - - 0.0
24/09:00pm 24.9 - - - - ESE 7 9 4 5 - - 0.0
24/08:30pm 25.2 - - - - ESE 11 13 6 7 - - 0.0
24/08:00pm 25.3 - - - - ESE 9 13 5 7 - - 0.0
24/07:30pm 24.4 - - - - SSE 13 17 7 9 - - 0.0
24/07:00pm 25.4 - - - - SE 6 7 3 4 - - 0.0
24/06:30pm 25.9 - - - - SSW 7 9 4 5 - - 0.0
24/06:00pm 25.9 - - - - WSW 7 9 4 5 - - 0.0
24/05:30pm 26.8 - - - - CALM 0 0 0 0 - - 0.0
24/05:00pm 27.5 - - - - CALM 0 0 0 0 - - 0.0
24/04:30pm 28.4 - - - - WSW 6 7 3 4 - - 0.0
24/04:00pm 29.4 - - - - W 6 9 3 5 - - 0.0
24/03:30pm 30.2 - - - - CALM 0 0 0 0 - - 0.0
24/03:00pm 30.8 - - - - CALM 0 0 0 0 - - 0.0
24/02:30pm 30.9 - - - - ENE 2 7 1 4 - - 0.0
24/02:00pm 30.9 - - - - ENE 6 7 3 4 - - 0.0
24/01:30pm 30.5 - - - - ENE 6 9 3 5 - - 0.0
24/01:00pm 30.7 - - - - ENE 9 13 5 7 - - 0.0
24/12:30pm 29.8 - - - - E 11 17 6 9 - - 0.0
24/12:00pm 30.0 - - - - E 13 22 7 12 - - 0.0
24/11:30am 29.6 - - - - E 15 26 8 14 - - 0.0
24/11:00am 28.9 - - - - E 17 24 9 13 - - 0.0
24/10:30am 28.5 - - - - E 19 30 10 16 - - 0.0
24/10:00am 29.0 - - - - E 20 30 11 16 - - 0.0
24/09:30am 27.9 - - - - E 19 30 10 16 - - 0.0
24/09:00am 26.0 - - - - E 13 22 7 12 - - 0.2
24/08:30am 24.9 - - - - E 11 15 6 8 - - 0.2
24/08:00am 24.5 - - - - ESE 11 17 6 9 - - 0.2
24/07:30am 23.3 - - - - ESE 9 11 5 6 - - 0.2
24/07:00am 23.0 - - - - E 9 15 5 8 - - 0.2
24/06:30am 22.7 - - - - ESE 11 17 6 9 - - 0.2
24/06:00am 22.0 - - - - E 7 9 4 5 - - 0.2
24/05:30am 22.2 - - - - ESE 9 13 5 7 - - 0.2
24/05:00am 22.2 - - - - ESE 9 11 5 6 - - 0.2
24/04:30am 22.9 - - - - ESE 9 13 5 7 - - 0.2
24/04:00am 23.3 - - - - ESE 11 13 6 7 - - 0.2
24/03:30am 23.5 - - - - ESE 9 13 5 7 - - 0.2
24/03:00am 23.6 - - - - SE 7 9 4 5 - - 0.2
24/02:30am 23.8 - - - - SE 9 13 5 7 - - 0.2
24/02:00am 24.0 - - - - ESE 11 15 6 8 - - 0.2
24/01:30am 23.3 - - - - ESE 9 11 5 6 - - 0.2
24/01:00am 23.5 - - - - ESE 7 9 4 5 - - 0.2
24/12:30am 23.5 - - - - ESE 7 9 4 5 - - 0.2
24/12:00am 23.7 - - - - SE 7 9 4 5 - - 0.2
 
Date/Time
WST
Temp
°C
App
Temp
°C
Dew
Point
Rel
Hum
%
Delta-T
°C
Wind Press
QNH
hPa
Press
MSL
hPa
Rain
since 9 am
mm
Dir
 
Spd
km/h
Gust
km/h
Spd
kts
Gust
kts
23/11:30pm 23.8 - - - - ESE 7 9 4 5 - - 0.2
23/11:00pm 24.0 - - - - ESE 6 7 3 4 - - 0.2
23/10:30pm 24.1 - - - - ESE 9 9 5 5 - - 0.2
23/10:00pm 24.0 - - - - ESE 9 9 5 5 - - 0.2
23/09:30pm 24.1 - - - - E 7 7 4 4 - - 0.2
23/09:00pm 24.3 - - - - E 7 9 4 5 - - 0.2
23/08:30pm 24.3 - - - - NE 7 9 4 5 - - 0.2
23/08:00pm 24.4 - - - - E 7 9 4 5 - - 0.2
23/07:30pm 24.6 - - - - ESE 7 9 4 5 - - 0.2
23/07:00pm 25.2 - - - - ESE 4 7 2 4 - - 0.2
23/06:30pm 25.6 - - - - SE 9 9 5 5 - - 0.2
23/06:00pm 26.0 - - - - SE 7 13 4 7 - - 0.2
23/05:30pm 26.4 - - - - SSE 7 11 4 6 - - 0.2
23/05:00pm 27.1 - - - - SE 9 13 5 7 - - 0.2
23/04:30pm 27.7 - - - - SSE 7 11 4 6 - - 0.2
23/04:00pm 28.3 - - - - SE 7 9 4 5 - - 0.2
23/03:30pm 28.7 - - - - SE 9 13 5 7 - - 0.2
23/03:00pm 29.1 - - - - SE 7 13 4 7 - - 0.2
23/02:30pm 28.0 - - - - SSE 9 15 5 8 - - 0.2
23/02:00pm 27.9 - - - - SE 7 11 4 6 - - 0.2
23/01:30pm 28.0 - - - - SE 7 9 4 5 - - 0.2
23/01:00pm 27.9 - - - - ESE 7 13 4 7 - - 0.2
23/12:30pm 27.4 - - - - CALM 0 6 0 3 - - 0.0
23/12:00pm 26.6 - - - - E 9 13 5 7 - - 0.0
23/11:30am 26.1 - - - - E 11 20 6 11 - - 0.0
23/11:00am 25.6 - - - - E 9 17 5 9 - - 0.0
23/10:30am 24.8 - - - - E 7 11 4 6 - - 0.0
23/10:00am 24.6 - - - - E 9 15 5 8 - - 0.0
23/09:30am 24.1 - - - - E 15 22 8 12 - - 0.0
23/09:00am 24.1 - - - - E 13 20 7 11 - - 0.0
23/08:30am 22.7 - - - - E 11 17 6 9 - - 0.0
23/08:00am 22.3 - - - - E 13 19 7 10 - - 0.0
23/07:30am 22.1 - - - - E 11 17 6 9 - - 0.0
23/07:00am 21.4 - - - - E 11 17 6 9 - - 0.0
23/06:30am 22.2 - - - - E 13 20 7 11 - - 0.0
23/06:00am 22.2 - - - - E 15 20 8 11 - - 0.0
23/05:30am 22.0 - - - - E 15 20 8 11 - - 0.0
23/05:00am 21.8 - - - - E 13 20 7 11 - - 0.0
23/04:30am 21.8 - - - - E 13 19 7 10 - - 0.0
23/04:00am 21.6 - - - - E 13 20 7 11 - - 0.0
23/03:30am 21.3 - - - - E 13 19 7 10 - - 0.0
23/03:00am 21.4 - - - - E 9 13 5 7 - - 0.0
23/02:30am 21.6 - - - - E 9 15 5 8 - - 0.0
23/02:00am 21.6 - - - - E 9 11 5 6 - - 0.0
23/01:30am 21.5 - - - - E 7 11 4 6 - - 0.0
23/01:00am 21.6 - - - - E 9 13 5 7 - - 0.0
23/12:30am 21.6 - - - - E 9 13 5 7 - - 0.0
23/12:00am 21.8 - - - - E 7 11 4 6 - - 0.0
 
Date/Time
WST
Temp
°C
App
Temp
°C
Dew
Point
Rel
Hum
%
Delta-T
°C
Wind Press
QNH
hPa
Press
MSL
hPa
Rain
since 9 am
mm
Dir
 
Spd
km/h
Gust
km/h
Spd
kts
Gust
kts
22/11:30pm 21.9 - - - - E 9 13 5 7 - - 0.0
22/11:00pm 21.8 - - - - E 9 13 5 7 - - 0.0
22/10:30pm 22.0 - - - - ESE 9 13 5 7 - - 0.0
22/10:00pm 22.0 - - - - SE 7 13 4 7 - - 0.0
22/09:30pm 22.4 - - - - ESE 7 9 4 5 - - 0.0
22/09:00pm 22.7 - - - - E 7 13 4 7 - - 0.0
22/08:30pm 22.8 - - - - ENE 11 17 6 9 - - 0.0
22/08:00pm 22.9 - - - - NE 13 17 7 9 - - 0.0
22/07:30pm 23.1 - - - - ENE 13 17 7 9 - - 0.0
22/07:00pm 23.3 - - - - NE 11 17 6 9 - - 0.0
22/06:30pm 23.1 - - - - NE 11 15 6 8 - - 0.0
22/06:00pm 23.1 - - - - NE 9 9 5 5 - - 0.0
22/05:30pm 23.5 - - - - NNW 2 6 1 3 - - 0.0
22/05:00pm 24.0 - - - - NW 4 9 2 5 - - 0.0
22/04:30pm 24.3 - - - - NE 11 15 6 8 - - 0.0
22/04:00pm 24.6 - - - - ENE 11 17 6 9 - - 0.0
22/03:30pm 24.9 - - - - ENE 11 19 6 10 - - 0.0
22/03:00pm 24.9 - - - - ENE 9 15 5 8 - - 0.0
22/02:30pm 24.7 - - - - ENE 9 15 5 8 - - 0.0
22/02:00pm 24.5 - - - - E 9 13 5 7 - - 0.0
22/01:30pm 24.7 - - - - ENE 9 13 5 7 - - 0.0
22/01:00pm 24.7 - - - - ENE 9 15 5 8 - - 0.0
22/12:30pm 24.9 - - - - ENE 9 15 5 8 - - 0.0

Other Formats:

Comma delimited format used in spreadsheet applications
http://www.bom.gov.au/fwo/IDW60801/IDW60801.95204.axf

JavaScript Object Notation format (JSON) in row-major order
http://www.bom.gov.au/fwo/IDW60801/IDW60801.95204.json